Time;durP1;ratioP1;P1;durP2;ratioP2;P2;SDS_P1;SDS_P2;PMS_P1;PMS_P2;Temp;Humidity;BMP_temperature;BMP_pressure;BME280_temperature;BME280_humidity;BME280_pressure;Samples;Min_cycle;Max_cycle;Signal;HPM_P1;HPM_P2
2021/08/09 00:01:50;;;;;;;;;;;;;;;;;;5002520;28;19929;-95
2021/08/09 00:04:20;;;;;;;;;;;;;;;;;;5002474;28;19914;-95
2021/08/09 00:06:48;;;;;;;;;;;;;;;;;;5002770;28;19937;-95
2021/08/09 00:09:16;;;;;;;;;;;;;;;;;;4986842;28;19914;-95
2021/08/09 00:11:45;;;;;;;;;;;;;;;;;;5003011;28;19914;-95
2021/08/09 00:14:13;;;;;;;;;;;;;;;;;;5002697;28;19929;-94
2021/08/09 00:16:41;;;;;;;;;;;;;;;;;;5002621;28;19914;-94
2021/08/09 00:19:09;;;;;;;;;;;;;;;;;;5002079;28;19910;-95
2021/08/09 00:21:39;;;;;;;;;;;;;;;;;;5002477;28;19917;-94
2021/08/09 00:24:07;;;;;;;;;;;;;;;;;;5002576;28;19913;-95
2021/08/09 00:26:35;;;;;;;;;;;;;;;;;;5002535;28;19940;-96
2021/08/09 00:29:06;;;;;;;;;;;;;;;;;;4986422;28;19912;-94
2021/08/09 00:31:34;;;;;;;;;;;;;;;;;;5002252;28;19934;-96
2021/08/09 00:34:03;;;;;;;;;;;;;;;;;;5001660;28;19918;-95
2021/08/09 00:36:31;;;;;;;;;;;;;;;;;;4986208;28;19924;-95
2021/08/09 00:39:04;;;;;;;;;;;;;;;;;;4986502;28;19913;-95
2021/08/09 00:41:35;;;;;;;;;;;;;;;;;;5002496;28;19914;-95
2021/08/09 00:44:04;;;;;;;;;;;;;;;;;;5002119;28;19920;-93
2021/08/09 00:46:34;;;;;;;;;;;;;;;;;;5001404;28;19940;-95
2021/08/09 00:49:03;;;;;;;;;;;;;;;;;;4985924;28;19910;-95
2021/08/09 00:51:32;;;;;;;;;;;;;;;;;;5002030;28;19929;-96
2021/08/09 00:54:06;;;;;;;;;;;;;;;;;;4985959;28;19910;-95
2021/08/09 00:56:40;;;;;;;;;;;;;;;;;;5002033;28;19928;-93
2021/08/09 00:59:09;;;;;;;;;;;;;;;;;;5001995;28;19910;-95
2021/08/09 01:01:38;;;;;;;;;;;;;;;;;;5001357;28;20363;-94
2021/08/09 01:04:10;;;;;;;;;;;;;;;;;;5001888;28;19920;-94
2021/08/09 01:06:41;;;;;;;;;;;;;;;;;;4985978;28;19909;-95
2021/08/09 01:09:14;;;;;;;;;;;;;;;;;;5001843;28;19929;-95
2021/08/09 01:11:48;;;;;;;;;;;;;;;;;;5001540;28;19910;-93
2021/08/09 01:14:21;;;;;;;;;;;;;;;;;;5001446;28;19934;-95
2021/08/09 01:17:00;;;;;;;;;;;;;;;;;;5001858;28;19989;-94
2021/08/09 01:19:33;;;;;;;;;;;;;;;;;;5001685;28;19946;-95
2021/08/09 01:22:03;;;;;;;;;;;;;;;;;;5001207;28;20638;-95
2021/08/09 01:24:34;;;;;;;;;;;;;;;;;;5001558;28;19940;-96
2021/08/09 01:27:03;;;;;;;;;;;;;;;;;;5001825;28;19909;-96
2021/08/09 01:29:35;;;;;;;;;;;;;;;;;;5001697;28;19926;-95
2021/08/09 01:32:04;;;;;;;;;;;;;;;;;;5001521;28;19928;-94
2021/08/09 01:34:32;;;;;;;;;;;;;;;;;;4985214;28;19916;-95
2021/08/09 01:37:01;;;;;;;;;;;;;;;;;;5001684;28;19910;-95
2021/08/09 01:39:32;;;;;;;;;;;;;;;;;;5001427;28;19914;-96
2021/08/09 01:42:00;;;;;;;;;;;;;;;;;;5001617;28;19917;-95
2021/08/09 01:44:29;;;;;;;;;;;;;;;;;;5001078;28;19928;-95
2021/08/09 01:46:59;;;;;;;;;;;;;;;;;;5001044;28;19914;-96
2021/08/09 01:49:28;;;;;;;;;;;;;;;;;;5001446;28;19929;-94
2021/08/09 01:51:58;;;;;;;;;;;;;;;;;;4985191;28;19914;-96
2021/08/09 01:54:26;;;;;;;;;;;;;;;;;;5000830;28;19913;-95
2021/08/09 01:56:55;;;;;;;;;;;;;;;;;;4985045;28;19910;-94
2021/08/09 01:59:24;;;;;;;;;;;;;;;;;;5001189;28;19924;-94
2021/08/09 02:01:53;;;;;;;;;;;;;;;;;;5001277;28;19910;-94
2021/08/09 02:04:23;;;;;;;;;;;;;;;;;;5000871;28;19914;-95
2021/08/09 02:06:53;;;;;;;;;;;;;;;;;;4985136;28;19916;-95
2021/08/09 02:09:22;;;;;;;;;;;;;;;;;;4984383;28;19920;-95
2021/08/09 02:11:53;;;;;;;;;;;;;;;;;;5002178;28;19910;-96
2021/08/09 02:14:24;;;;;;;;;;;;;;;;;;4989118;28;19914;-95
2021/08/09 02:16:54;;;;;;;;;;;;;;;;;;5004868;28;19914;-95
2021/08/09 02:19:25;;;;;;;;;;;;;;;;;;5004953;28;19939;-95
2021/08/09 02:21:56;;;;;;;;;;;;;;;;;;5004417;28;19913;-95
2021/08/09 02:24:25;;;;;;;;;;;;;;;;;;5004558;28;19914;-96
2021/08/09 02:26:55;;;;;;;;;;;;;;;;;;5004420;28;19916;-96
2021/08/09 02:29:24;;;;;;;;;;;;;;;;;;5002735;28;19920;-95
2021/08/09 02:31:54;;;;;;;;;;;;;;;;;;5003240;28;20586;-96
2021/08/09 02:34:24;;;;;;;;;;;;;;;;;;4988290;28;19909;-95
2021/08/09 02:36:53;;;;;;;;;;;;;;;;;;5004079;28;19914;-96
2021/08/09 02:39:22;;;;;;;;;;;;;;;;;;4988329;28;19920;-96
2021/08/09 02:41:50;;;;;;;;;;;;;;;;;;4988404;28;19924;-95
2021/08/09 02:44:19;;;;;;;;;;;;;;;;;;5004572;28;19924;-96
2021/08/09 02:46:48;;;;;;;;;;;;;;;;;;5004704;28;19923;-96
2021/08/09 02:49:17;;;;;;;;;;;;;;;;;;4988079;28;19910;-96
2021/08/09 02:51:47;;;;;;;;;;;;;;;;;;5004407;28;19914;-96
2021/08/09 02:54:17;;;;;;;;;;;;;;;;;;4988411;28;19924;-96
2021/08/09 02:56:45;;;;;;;;;;;;;;;;;;4996463;28;19910;-96
2021/08/09 02:59:14;;;;;;;;;;;;;;;;;;5004237;28;19924;-96
2021/08/09 03:01:43;;;;;;;;;;;;;;;;;;4987636;28;19916;-95
2021/08/09 03:04:14;;;;;;;;;;;;;;;;;;4987513;28;19913;-95
2021/08/09 03:06:43;;;;;;;;;;;;;;;;;;4988004;28;19909;-95
2021/08/09 03:09:12;;;;;;;;;;;;;;;;;;4987602;28;19922;-94
2021/08/09 03:11:41;;;;;;;;;;;;;;;;;;5004172;28;19922;-96
2021/08/09 03:14:21;;;;;;;;;;;;;;;;;;4987521;28;19914;-94
2021/08/09 03:16:50;;;;;;;;;;;;;;;;;;4987671;28;20199;-95
2021/08/09 03:19:18;;;;;;;;;;;;;;;;;;4987777;28;19920;-95
2021/08/09 03:21:51;;;;;;;;;;;;;;;;;;5003621;28;19914;-95
2021/08/09 03:24:21;;;;;;;;;;;;;;;;;;5002725;28;19935;-95
2021/08/09 03:26:50;;;;;;;;;;;;;;;;;;5003534;28;19910;-95
2021/08/09 03:29:19;;;;;;;;;;;;;;;;;;5003537;28;19910;-96
2021/08/09 03:31:48;;;;;;;;;;;;;;;;;;4987379;28;19916;-96
2021/08/09 03:34:18;;;;;;;;;;;;;;;;;;5003141;28;19910;-94
2021/08/09 03:36:47;;;;;;;;;;;;;;;;;;4995725;28;19909;-96
2021/08/09 03:39:16;;;;;;;;;;;;;;;;;;5003819;28;19917;-96
2021/08/09 03:41:46;;;;;;;;;;;;;;;;;;5003403;28;19910;-95
2021/08/09 03:44:15;;;;;;;;;;;;;;;;;;5003756;28;19910;-95
2021/08/09 03:46:44;;;;;;;;;;;;;;;;;;4987805;28;19929;-95
2021/08/09 03:49:13;;;;;;;;;;;;;;;;;;5003204;28;19934;-96
2021/08/09 03:51:42;;;;;;;;;;;;;;;;;;5003052;28;19922;-95
2021/08/09 03:54:11;;;;;;;;;;;;;;;;;;5002854;28;19910;-96
2021/08/09 03:56:40;;;;;;;;;;;;;;;;;;5003185;28;19924;-96
2021/08/09 03:59:10;;;;;;;;;;;;;;;;;;4986722;28;19909;-96
2021/08/09 04:01:40;;;;;;;;;;;;;;;;;;4987266;28;19916;-96
2021/08/09 04:04:09;;;;;;;;;;;;;;;;;;4987330;28;19909;-95
2021/08/09 04:06:38;;;;;;;;;;;;;;;;;;4986581;28;19930;-94
2021/08/09 04:09:07;;;;;;;;;;;;;;;;;;5002209;28;19914;-95
2021/08/09 04:11:38;;;;;;;;;;;;;;;;;;4986892;28;19916;-95
2021/08/09 04:14:07;;;;;;;;;;;;;;;;;;5002546;28;19910;-95
2021/08/09 04:16:37;;;;;;;;;;;;;;;;;;5002763;28;19914;-95
2021/08/09 04:19:06;;;;;;;;;;;;;;;;;;4986215;28;19916;-94
2021/08/09 04:21:35;;;;;;;;;;;;;;;;;;5001532;28;19917;-95
2021/08/09 04:24:03;;;;;;;;;;;;;;;;;;4985905;28;19928;-94
2021/08/09 04:26:32;;;;;;;;;;;;;;;;;;4986328;28;19910;-95
2021/08/09 04:29:00;;;;;;;;;;;;;;;;;;5002162;28;19913;-96
2021/08/09 04:31:29;;;;;;;;;;;;;;;;;;4985526;28;19910;-95
2021/08/09 04:34:00;;;;;;;;;;;;;;;;;;5001873;28;19933;-95
2021/08/09 04:36:28;;;;;;;;;;;;;;;;;;5001023;28;19916;-94
2021/08/09 04:38:57;;;;;;;;;;;;;;;;;;5001472;28;19930;-94
2021/08/09 04:41:25;;;;;;;;;;;;;;;;;;5000821;28;19913;-95
2021/08/09 04:43:54;;;;;;;;;;;;;;;;;;4999610;28;19930;-94
2021/08/09 04:46:23;;;;;;;;;;;;;;;;;;5001167;28;19925;-94
2021/08/09 04:48:51;;;;;;;;;;;;;;;;;;5001284;28;19920;-94
2021/08/09 04:51:21;;;;;;;;;;;;;;;;;;4984993;28;20328;-94
2021/08/09 04:53:52;;;;;;;;;;;;;;;;;;5000445;28;19926;-94
2021/08/09 04:56:20;;;;;;;;;;;;;;;;;;5001075;28;19910;-95
2021/08/09 04:58:49;;;;;;;;;;;;;;;;;;5000479;28;19932;-94
2021/08/09 05:01:18;;;;;;;;;;;;;;;;;;4999094;28;19932;-95
2021/08/09 05:03:47;;;;;;;;;;;;;;;;;;5000259;28;19925;-95
2021/08/09 05:06:24;;;;;;;;;;;;;;;;;;4982815;28;19914;-93
2021/08/09 05:08:53;;;;;;;;;;;;;;;;;;4999228;28;19910;-94
2021/08/09 05:11:23;;;;;;;;;;;;;;;;;;4999072;28;19951;-94
2021/08/09 05:14:00;;;;;;;;;;;;;;;;;;4982940;28;19920;-94
2021/08/09 05:16:33;;;;;;;;;;;;;;;;;;4999590;28;19910;-94
2021/08/09 05:19:03;;;;;;;;;;;;;;;;;;4984195;28;19926;-95
2021/08/09 05:21:33;;;;;;;;;;;;;;;;;;4996026;28;19971;-94
2021/08/09 05:24:02;;;;;;;;;;;;;;;;;;4997494;28;19926;-94
2021/08/09 05:26:30;;;;;;;;;;;;;;;;;;4997108;28;19925;-95
2021/08/09 05:28:58;;;;;;;;;;;;;;;;;;4997685;28;19933;-94
2021/08/09 05:31:27;;;;;;;;;;;;;;;;;;4995559;28;19926;-95
2021/08/09 05:33:56;;;;;;;;;;;;;;;;;;4979604;28;19930;-95
2021/08/09 05:36:24;;;;;;;;;;;;;;;;;;4994945;28;19926;-93
2021/08/09 05:38:54;;;;;;;;;;;;;;;;;;4994619;28;20246;-94
2021/08/09 05:41:23;;;;;;;;;;;;;;;;;;4982260;28;19936;-93
2021/08/09 05:43:55;;;;;;;;;;;;;;;;;;4980700;28;19926;-94
2021/08/09 05:46:24;;;;;;;;;;;;;;;;;;4994306;28;19936;-95
2021/08/09 05:48:53;;;;;;;;;;;;;;;;;;4997597;28;20162;-93
2021/08/09 05:51:22;;;;;;;;;;;;;;;;;;4998901;28;19932;-94
2021/08/09 05:53:50;;;;;;;;;;;;;;;;;;4998363;28;19926;-95
2021/08/09 05:56:20;;;;;;;;;;;;;;;;;;4999900;28;20290;-95
2021/08/09 05:58:57;;;;;;;;;;;;;;;;;;4999309;28;19926;-95
2021/08/09 06:01:27;;;;;;;;;;;;;;;;;;4997021;28;19925;-96
2021/08/09 06:03:56;;;;;;;;;;;;;;;;;;4981626;28;19930;-94
2021/08/09 06:06:24;;;;;;;;;;;;;;;;;;4982194;28;19926;-93
2021/08/09 06:09:02;;;;;;;;;;;;;;;;;;4983220;28;19926;-95
2021/08/09 06:11:32;;;;;;;;;;;;;;;;;;4987461;28;19926;-95
2021/08/09 06:14:01;;;;;;;;;;;;;;;;;;4988330;28;19916;-95
2021/08/09 06:16:30;;;;;;;;;;;;;;;;;;5001751;28;19914;-95
2021/08/09 06:18:59;;;;;;;;;;;;;;;;;;5000412;28;19910;-95
2021/08/09 06:21:33;;;;;;;;;;;;;;;;;;5000677;28;19926;-94
2021/08/09 06:24:01;;;;;;;;;;;;;;;;;;4998491;28;19926;-95
2021/08/09 06:26:29;;;;;;;;;;;;;;;;;;4981765;28;19929;-96
2021/08/09 06:29:00;;;;;;;;;;;;;;;;;;4984918;28;19936;-95
2021/08/09 06:31:29;;;;;;;;;;;;;;;;;;5000316;28;19926;-95
2021/08/09 06:33:58;;;;;;;;;;;;;;;;;;4999558;28;19932;-96
2021/08/09 06:36:34;;;;;;;;;;;;;;;;;;4987282;28;19916;-95
2021/08/09 06:39:02;;;;;;;;;;;;;;;;;;5004427;28;19913;-95
2021/08/09 06:41:34;;;;;;;;;;;;;;;;;;5004420;28;19914;-93
2021/08/09 06:44:21;;;;;;;;;;;;;;;;;;4982627;28;19926;-92
2021/08/09 06:46:50;;;;;;;;;;;;;;;;;;5002102;28;19924;-94
2021/08/09 06:49:20;;;;;;;;;;;;;;;;;;5003793;28;19926;-93
2021/08/09 06:51:48;;;;;;;;;;;;;;;;;;5003079;28;19944;-93
2021/08/09 06:54:19;;;;;;;;;;;;;;;;;;4986217;28;20134;-93
2021/08/09 06:56:48;;;;;;;;;;;;;;;;;;4995582;28;19910;-93
2021/08/09 06:59:16;;;;;;;;;;;;;;;;;;4993259;28;19930;-93
2021/08/09 07:01:47;;;;;;;;;;;;;;;;;;4994049;28;19932;-93
2021/08/09 07:04:16;;;;;;;;;;;;;;;;;;4976437;28;19926;-92
2021/08/09 07:06:45;;;;;;;;;;;;;;;;;;4993077;28;19937;-92
2021/08/09 07:09:13;;;;;;;;;;;;;;;;;;4989991;28;19932;-92
2021/08/09 07:11:42;;;;;;;;;;;;;;;;;;4991233;28;19926;-92
2021/08/09 07:14:11;;;;;;;;;;;;;;;;;;4992099;28;20428;-92
2021/08/09 07:16:41;;;;;;;;;;;;;;;;;;4973492;28;19930;-92
2021/08/09 07:19:12;;;;;;;;;;;;;;;;;;4977519;28;19930;-93
2021/08/09 07:21:40;;;;;;;;;;;;;;;;;;4998058;28;19930;-92
2021/08/09 07:24:08;;;;;;;;;;;;;;;;;;4992890;28;19933;-93
2021/08/09 07:26:37;;;;;;;;;;;;;;;;;;4969778;28;19925;-92
2021/08/09 07:29:05;;;;;;;;;;;;;;;;;;4987250;28;19933;-92
2021/08/09 07:31:34;;;;;;;;;;;;;;;;;;4987466;28;20178;-91
2021/08/09 07:34:02;;;;;;;;;;;;;;;;;;4972010;28;19932;-92
2021/08/09 07:36:32;;;;;;;;;;;;;;;;;;4974114;28;19948;-93
2021/08/09 07:39:03;;;;;;;;;;;;;;;;;;4973241;28;19932;-93
2021/08/09 07:41:32;;;;;;;;;;;;;;;;;;4967630;28;19933;-92
2021/08/09 07:44:00;;;;;;;;;;;;;;;;;;4982935;28;19926;-92
2021/08/09 07:46:28;;;;;;;;;;;;;;;;;;4983404;28;20444;-93
2021/08/09 07:48:59;;;;;;;;;;;;;;;;;;4981743;28;19937;-93
2021/08/09 07:51:30;;;;;;;;;;;;;;;;;;4968118;28;19926;-93
2021/08/09 07:54:00;;;;;;;;;;;;;;;;;;4986847;28;19933;-93
2021/08/09 07:56:30;;;;;;;;;;;;;;;;;;4966823;28;19933;-92
2021/08/09 07:58:59;;;;;;;;;;;;;;;;;;4983324;28;19933;-93
2021/08/09 08:01:27;;;;;;;;;;;;;;;;;;4985463;28;19926;-92
2021/08/09 08:03:56;;;;;;;;;;;;;;;;;;4984809;28;19925;-92
2021/08/09 08:06:24;;;;;;;;;;;;;;;;;;4968309;28;19933;-93
2021/08/09 08:08:54;;;;;;;;;;;;;;;;;;4982017;28;19926;-92
2021/08/09 08:11:26;;;;;;;;;;;;;;;;;;4966482;28;19949;-92
2021/08/09 08:13:56;;;;;;;;;;;;;;;;;;4986854;28;20428;-92
2021/08/09 08:16:24;;;;;;;;;;;;;;;;;;4986200;28;19925;-92
2021/08/09 08:18:53;;;;;;;;;;;;;;;;;;4982950;28;19926;-93
2021/08/09 08:21:21;;;;;;;;;;;;;;;;;;4984606;28;19925;-93
2021/08/09 08:23:49;;;;;;;;;;;;;;;;;;4984053;28;20309;-94
2021/08/09 08:26:18;;;;;;;;;;;;;;;;;;4980567;28;19925;-93
2021/08/09 08:28:49;;;;;;;;;;;;;;;;;;4986939;28;19930;-93
2021/08/09 08:31:17;;;;;;;;;;;;;;;;;;4986023;28;19933;-93
2021/08/09 08:33:46;;;;;;;;;;;;;;;;;;5000382;28;20397;-91
2021/08/09 08:36:15;;;;;;;;;;;;;;;;;;4995514;28;19926;-92
2021/08/09 08:38:45;;;;;;;;;;;;;;;;;;4995017;28;19926;-92
2021/08/09 08:41:15;;;;;;;;;;;;;;;;;;5010800;28;19926;-92
2021/08/09 08:43:43;;;;;;;;;;;;;;;;;;4978909;28;20290;-90
2021/08/09 08:46:13;;;;;;;;;;;;;;;;;;4979063;28;19937;-92
2021/08/09 08:48:46;;;;;;;;;;;;;;;;;;4984845;28;19925;-92
2021/08/09 08:51:26;;;;;;;;;;;;;;;;;;4987490;28;19937;-93
2021/08/09 08:53:56;;;;;;;;;;;;;;;;;;4982252;28;19932;-92
2021/08/09 08:56:24;;;;;;;;;;;;;;;;;;4982742;28;19952;-92
2021/08/09 08:58:53;;;;;;;;;;;;;;;;;;4980623;28;19926;-93
2021/08/09 09:01:36;;;;;;;;;;;;;;;;;;4987623;28;19936;-91
2021/08/09 09:07:02;;;;;;;;;;;;;;;;;;5080266;27;19905;-91
2021/08/09 09:09:37;;;;;;;;;;;;;;;;;;5070165;28;19919;-90
2021/08/09 09:12:13;;;;;;;;;;;;;;;;;;5061260;28;19943;-91
2021/08/09 09:14:44;;;;;;;;;;;;;;;;;;5072336;28;19925;-90
2021/08/09 09:17:13;;;;;;;;;;;;;;;;;;5044760;28;19926;-86
2021/08/09 09:19:50;;;;;;;;;;;;;;;;;;5048116;28;19913;-89
2021/08/09 09:22:53;;;;;;;;;;;;;;;;;;5043642;28;19917;-89
2021/08/09 09:25:37;;;;;;;;;;;;;;;;;;5052150;28;19916;-84
2021/08/09 09:28:29;;;;;;;;;;;;;;;;;;5056847;28;19913;-90
2021/08/09 09:31:07;;;;;;;;;;;;;;;;;;5055616;28;19913;-91
2021/08/09 09:33:50;;;;;;;;;;;;;;;;;;5065671;28;19913;-91
2021/08/09 09:36:24;;;;;;;;;;;;;;;;;;5058310;28;19932;-90
2021/08/09 09:38:55;;;;;;;;;;;;;;;;;;5023718;28;19913;-91
2021/08/09 09:41:39;;;;;;;;;;;;;;;;;;5049747;28;19920;-90
2021/08/09 09:44:10;;;;;;;;;;;;;;;;;;5045200;28;19910;-90
2021/08/09 09:47:31;;;;;;;;;;;;;;;;;;;;;
2021/08/09 09:54:29;;;;;;;;;;;;;;;;;;5055678;28;19932;-91
2021/08/09 09:57:04;;;;;;;;;;;;;;;;;;5055087;28;19919;-91
2021/08/09 09:59:41;;;;;;;;;;;;;;;;;;5046075;28;20023;-90
2021/08/09 10:02:22;;;;;;;;;;;;;;;;;;5054452;28;19913;-91
2021/08/09 10:05:01;;;;;;;;;;;;;;;;;;5031420;28;19926;-88
2021/08/09 10:07:34;;;;;;;;;;;;;;;;;;5056688;28;19948;-83
2021/08/09 10:10:27;;;;;;;;;;;;;;;;;;5028145;28;19925;-87
2021/08/09 10:13:04;;;;;;;;;;;;;;;;;;5028025;28;19930;-86
2021/08/09 10:16:08;;;;;;;;;;;;;;;;;;5029164;28;19939;-86
2021/08/09 10:23:38;;;;;;;;;;;;;;;;;;5020298;28;19936;-88
2021/08/09 10:26:13;;;;;;;;;;;;;;;;;;5007607;28;19929;-87
2021/08/09 10:29:02;;;;;;;;;;;;;;;;;;5036987;28;20284;-88
2021/08/09 10:31:34;;;;;;;;;;;;;;;;;;5021355;28;20311;-86
2021/08/09 10:34:08;;;;;;;;;;;;;;;;;;5024736;28;19929;-87
2021/08/09 10:37:11;;;;;;;;;;;;;;;;;;5039669;28;19925;-86
2021/08/09 10:39:59;;;;;;;;;;;;;;;;;;4953553;28;20324;-86
2021/08/09 10:42:42;;;;;;;;;;;;;;;;;;4965789;28;20336;-86
2021/08/09 10:45:37;;;;;;;;;;;;;;;;;;5007547;28;20307;-84
2021/08/09 10:48:06;;;;;;;;;;;;;;;;;;5025788;28;19925;-82
2021/08/09 10:50:51;;;;;;;;;;;;;;;;;;5028182;28;19926;-83
2021/08/09 10:53:39;;;;;;;;;;;;;;;;;;5020483;28;19925;-86
2021/08/09 10:56:36;;;;;;;;;;;;;;;;;;5015119;28;19933;-87
2021/08/09 11:02:38;;;;;;;;;;;;;;;;;;5035643;28;19933;-82
2021/08/09 11:05:32;;;;;;;;;;;;;;;;;;5017715;28;19932;-87
2021/08/09 11:08:25;;;;;;;;;;;;;;;;;;5023108;28;19932;-85
2021/08/09 11:11:07;;;;;;;;;;;;;;;;;;5027500;28;19925;-82
2021/08/09 11:13:54;;;;;;;;;;;;;;;;;;5022813;28;20025;-83
2021/08/09 11:16:40;;;;;;;;;;;;;;;;;;5017085;28;19937;-88
2021/08/09 11:19:42;;;;;;;;;;;;;;;;;;5031478;28;19924;-82
2021/08/09 11:22:10;;;;;;;;;;;;;;;;;;5039805;28;19929;-82
2021/08/09 11:24:39;;;;;;;;;;;;;;;;;;5025767;28;19936;-82
2021/08/09 11:27:11;;;;;;;;;;;;;;;;;;5019680;28;19925;-88
2021/08/09 11:37:24;;;;;;;;;;;;;;;;;;4951659;28;19926;-84
2021/08/09 11:39:52;;;;;;;;;;;;;;;;;;4952250;28;19938;-84
2021/08/09 11:42:23;;;;;;;;;;;;;;;;;;4921969;29;19927;-84
2021/08/09 11:44:55;;;;;;;;;;;;;;;;;;4926170;29;19927;-85
2021/08/09 11:47:26;;;;;;;;;;;;;;;;;;4930520;29;19967;-85
2021/08/09 11:49:55;;;;;;;;;;;;;;;;;;4921844;29;19934;-87
2021/08/09 11:52:25;;;;;;;;;;;;;;;;;;4919990;29;19927;-84
2021/08/09 11:54:53;;;;;;;;;;;;;;;;;;4905593;29;19933;-86
2021/08/09 11:57:21;;;;;;;;;;;;;;;;;;4921034;29;20290;-85
2021/08/09 11:59:51;;;;;;;;;;;;;;;;;;4935408;29;19931;-85
2021/08/09 12:02:19;;;;;;;;;;;;;;;;;;4920361;29;20108;-82
2021/08/09 12:04:49;;;;;;;;;;;;;;;;;;4903037;29;19926;-84
2021/08/09 12:07:23;;;;;;;;;;;;;;;;;;4928129;29;19930;-84
2021/08/09 12:09:56;;;;;;;;;;;;;;;;;;4927103;28;19926;-82
2021/08/09 12:12:26;;;;;;;;;;;;;;;;;;4985148;28;19949;-85
2021/08/09 12:15:02;;;;;;;;;;;;;;;;;;4975983;28;19932;-83
2021/08/09 12:17:30;;;;;;;;;;;;;;;;;;4979868;28;20395;-81
2021/08/09 12:20:02;;;;;;;;;;;;;;;;;;4972731;28;19926;-81
2021/08/09 12:22:34;;;;;;;;;;;;;;;;;;5006783;28;19926;-84
2021/08/09 12:25:11;;;;;;;;;;;;;;;;;;5019154;28;19925;-83
2021/08/09 12:27:40;;;;;;;;;;;;;;;;;;4984549;28;19926;-82
2021/08/09 12:30:10;;;;;;;;;;;;;;;;;;5003860;28;19933;-82
2021/08/09 12:32:39;;;;;;;;;;;;;;;;;;4999357;28;19925;-83
2021/08/09 12:35:09;;;;;;;;;;;;;;;;;;4998293;28;19934;-83
2021/08/09 12:37:38;;;;;;;;;;;;;;;;;;5011529;28;19933;-84
2021/08/09 12:40:12;;;;;;;;;;;;;;;;;;4975627;28;19933;-82
2021/08/09 12:42:43;;;;;;;;;;;;;;;;;;5004503;28;20399;-84
2021/08/09 12:45:14;;;;;;;;;;;;;;;;;;4987877;28;19926;-84
2021/08/09 12:47:42;;;;;;;;;;;;;;;;;;4976812;28;19932;-84
2021/08/09 12:50:10;;;;;;;;;;;;;;;;;;4973510;28;20154;-83
2021/08/09 12:52:39;;;;;;;;;;;;;;;;;;4978427;28;20402;-81
2021/08/09 12:55:08;;;;;;;;;;;;;;;;;;4971821;28;20314;-81
2021/08/09 12:57:37;;;;;;;;;;;;;;;;;;4994967;28;20669;-80
2021/08/09 13:00:07;;;;;;;;;;;;;;;;;;4978555;28;19959;-81
2021/08/09 13:02:35;;;;;;;;;;;;;;;;;;4954032;28;19926;-82
2021/08/09 13:05:04;;;;;;;;;;;;;;;;;;4988868;28;19926;-81
2021/08/09 13:07:32;;;;;;;;;;;;;;;;;;4988047;28;19949;-82
2021/08/09 13:10:03;;;;;;;;;;;;;;;;;;4990935;28;19929;-83
2021/08/09 13:12:31;;;;;;;;;;;;;;;;;;4989044;28;19934;-81
2021/08/09 13:15:00;;;;;;;;;;;;;;;;;;5009385;28;20315;-81
2021/08/09 13:17:31;;;;;;;;;;;;;;;;;;4999750;28;19925;-82
2021/08/09 13:19:59;;;;;;;;;;;;;;;;;;4994623;28;19925;-83
2021/08/09 13:22:29;;;;;;;;;;;;;;;;;;4974233;28;19926;-81
2021/08/09 13:25:02;;;;;;;;;;;;;;;;;;4991289;28;19949;-82
2021/08/09 13:27:31;;;;;;;;;;;;;;;;;;4989729;28;19936;-80
2021/08/09 13:30:02;;;;;;;;;;;;;;;;;;4993102;28;19925;-81
2021/08/09 13:32:30;;;;;;;;;;;;;;;;;;4980979;28;19925;-81
2021/08/09 13:34:59;;;;;;;;;;;;;;;;;;4980413;28;19930;-80
2021/08/09 13:37:27;;;;;;;;;;;;;;;;;;4977572;28;20303;-83
2021/08/09 13:39:55;;;;;;;;;;;;;;;;;;4972981;28;20395;-83
2021/08/09 13:42:24;;;;;;;;;;;;;;;;;;5010800;28;19929;-83
2021/08/09 13:44:52;;;;;;;;;;;;;;;;;;4975583;28;19940;-82
2021/08/09 13:47:22;;;;;;;;;;;;;;;;;;4974358;28;19926;-81
2021/08/09 13:49:50;;;;;;;;;;;;;;;;;;4995600;28;19926;-82
2021/08/09 13:52:18;;;;;;;;;;;;;;;;;;4981866;28;19930;-82
2021/08/09 13:54:47;;;;;;;;;;;;;;;;;;5007454;28;19937;-81
2021/08/09 13:57:16;;;;;;;;;;;;;;;;;;4979112;28;19932;-82
2021/08/09 13:59:46;;;;;;;;;;;;;;;;;;5023818;28;19937;-85
2021/08/09 14:02:14;;;;;;;;;;;;;;;;;;5009809;28;19936;-83
2021/08/09 14:04:44;;;;;;;;;;;;;;;;;;4981866;28;19929;-84
2021/08/09 14:07:13;;;;;;;;;;;;;;;;;;4973713;28;20430;-82
2021/08/09 14:09:41;;;;;;;;;;;;;;;;;;5013635;28;20380;-81
2021/08/09 14:12:09;;;;;;;;;;;;;;;;;;4978820;28;19925;-82
2021/08/09 14:14:37;;;;;;;;;;;;;;;;;;5009965;28;20427;-80
2021/08/09 14:17:06;;;;;;;;;;;;;;;;;;4975425;28;19933;-82
2021/08/09 14:19:41;;;;;;;;;;;;;;;;;;4977308;28;20316;-84
2021/08/09 14:22:17;;;;;;;;;;;;;;;;;;5012704;28;19926;-82
2021/08/09 14:24:46;;;;;;;;;;;;;;;;;;5027795;28;20430;-81
2021/08/09 14:27:16;;;;;;;;;;;;;;;;;;4995184;28;19932;-82
2021/08/09 14:29:45;;;;;;;;;;;;;;;;;;5012935;28;20310;-80
2021/08/09 14:32:14;;;;;;;;;;;;;;;;;;5011249;28;20390;-83
2021/08/09 14:34:42;;;;;;;;;;;;;;;;;;4975712;28;20304;-80
2021/08/09 14:37:31;;;;;;;;;;;;;;;;;;4979459;28;19925;-83
2021/08/09 14:40:00;;;;;;;;;;;;;;;;;;4997527;28;19925;-81
2021/08/09 14:42:30;;;;;;;;;;;;;;;;;;5024075;28;19925;-81
2021/08/09 14:44:59;;;;;;;;;;;;;;;;;;4985479;28;19925;-81
2021/08/09 14:47:27;;;;;;;;;;;;;;;;;;4993800;28;19925;-85
2021/08/09 14:49:57;;;;;;;;;;;;;;;;;;4995589;28;19925;-81
2021/08/09 14:52:26;;;;;;;;;;;;;;;;;;4976488;28;19926;-81
2021/08/09 14:54:56;;;;;;;;;;;;;;;;;;5007446;28;19937;-83
2021/08/09 14:57:26;;;;;;;;;;;;;;;;;;5007575;28;20387;-82
2021/08/09 14:59:57;;;;;;;;;;;;;;;;;;4979864;28;19933;-82
2021/08/09 15:02:46;;;;;;;;;;;;;;;;;;4979531;28;20392;-83
2021/08/09 15:05:27;;;;;;;;;;;;;;;;;;5000813;28;19925;-83
2021/08/09 15:08:03;;;;;;;;;;;;;;;;;;5012027;28;19932;-83
2021/08/09 15:10:37;;;;;;;;;;;;;;;;;;4971361;28;19926;-82
2021/08/09 15:13:06;;;;;;;;;;;;;;;;;;4993768;28;20110;-82
2021/08/09 15:15:35;;;;;;;;;;;;;;;;;;4979137;28;19929;-84
2021/08/09 15:18:07;;;;;;;;;;;;;;;;;;5001461;28;19929;-83
2021/08/09 15:20:39;;;;;;;;;;;;;;;;;;5006782;28;19925;-84
2021/08/09 15:23:10;;;;;;;;;;;;;;;;;;5004816;28;19926;-82
2021/08/09 15:25:41;;;;;;;;;;;;;;;;;;5012009;28;19936;-82
2021/08/09 15:28:10;;;;;;;;;;;;;;;;;;5024913;28;19925;-84
2021/08/09 15:30:38;;;;;;;;;;;;;;;;;;4974808;28;19930;-81
2021/08/09 15:33:09;;;;;;;;;;;;;;;;;;4995426;28;19936;-83
2021/08/09 15:35:40;;;;;;;;;;;;;;;;;;4996422;28;20343;-83
2021/08/09 15:38:08;;;;;;;;;;;;;;;;;;4979078;28;19932;-82
2021/08/09 15:40:37;;;;;;;;;;;;;;;;;;5000478;28;20308;-85
2021/08/09 15:43:09;;;;;;;;;;;;;;;;;;5005816;28;20422;-84
2021/08/09 15:45:37;;;;;;;;;;;;;;;;;;4970228;28;19925;-81
2021/08/09 15:48:06;;;;;;;;;;;;;;;;;;4975684;28;20407;-81
2021/08/09 15:50:38;;;;;;;;;;;;;;;;;;5004066;28;19932;-82
2021/08/09 15:53:08;;;;;;;;;;;;;;;;;;5019703;28;19925;-82
2021/08/09 15:55:36;;;;;;;;;;;;;;;;;;5011544;28;19930;-82
2021/08/09 15:58:05;;;;;;;;;;;;;;;;;;4975942;28;19936;-83
2021/08/09 16:00:35;;;;;;;;;;;;;;;;;;4969978;28;19930;-84
2021/08/09 16:03:04;;;;;;;;;;;;;;;;;;4979239;28;19932;-85
2021/08/09 16:05:36;;;;;;;;;;;;;;;;;;4992574;28;19952;-85
2021/08/09 16:08:13;;;;;;;;;;;;;;;;;;4995827;28;19929;-83
2021/08/09 16:10:55;;;;;;;;;;;;;;;;;;4978834;28;19932;-83
2021/08/09 16:13:32;;;;;;;;;;;;;;;;;;4976033;28;19932;-82
2021/08/09 16:16:02;;;;;;;;;;;;;;;;;;5008656;28;19925;-85
2021/08/09 16:18:36;;;;;;;;;;;;;;;;;;4976538;28;20383;-82
2021/08/09 16:21:09;;;;;;;;;;;;;;;;;;5006418;28;19926;-83
2021/08/09 16:23:51;;;;;;;;;;;;;;;;;;5012308;28;19934;-83
2021/08/09 16:26:20;;;;;;;;;;;;;;;;;;4982450;28;19925;-83
2021/08/09 16:28:48;;;;;;;;;;;;;;;;;;4992196;28;20303;-85
2021/08/09 16:31:19;;;;;;;;;;;;;;;;;;4989768;28;19933;-83
2021/08/09 16:33:47;;;;;;;;;;;;;;;;;;4985860;28;19933;-84
2021/08/09 16:36:27;;;;;;;;;;;;;;;;;;5001353;28;19925;-83
2021/08/09 16:38:55;;;;;;;;;;;;;;;;;;4982694;28;19939;-86
2021/08/09 19:56:31;;;;;;;;;;;;;;;;;;5078075;28;19924;-85
2021/08/09 20:10:12;;;;;;;;;;;;;;;;;;5033312;28;20314;-87
